Terminal Aerodrome Forecast
Issued by NWS Spokane, WA

Home | Current Version | Previous Version | Text Only | Print | Product List | Glossary On
Versions: 1 2 3 4 5 6 7 8 9 10 11 12 13
000
FTUS46 KOTX 171728
TAFEAT
TAF
KEAT 171728Z 1718/1818 30014KT P6SM SKC
     FM171900 29007KT P6SM SKC
     FM180200 30014KT P6SM SCT200
     FM180800 30010KT P6SM SCT200=

USA.gov is the U.S. government's official web portal to all federal, state and local government web resources and services.